sensor_id;sensor_type;location;lat;lon;timestamp;temperature;humidity
10986;DHT22;5546;48.714;8.738;2024-03-22T00:01:49;11.20;99.90
10986;DHT22;5546;48.714;8.738;2024-03-22T00:04:15;10.90;99.90
10986;DHT22;5546;48.714;8.738;2024-03-22T00:06:42;10.80;99.90
10986;DHT22;5546;48.714;8.738;2024-03-22T00:09:09;10.60;99.90
10986;DHT22;5546;48.714;8.738;2024-03-22T00:11:35;10.30;99.90
10986;DHT22;5546;48.714;8.738;2024-03-22T00:14:02;10.40;99.90
10986;DHT22;5546;48.714;8.738;2024-03-22T00:16:27;10.40;99.90
10986;DHT22;5546;48.714;8.738;2024-03-22T00:18:53;10.50;99.90
10986;DHT22;5546;48.714;8.738;2024-03-22T00:21:19;10.50;99.90
10986;DHT22;5546;48.714;8.738;2024-03-22T00:23:45;10.80;99.90
10986;DHT22;5546;48.714;8.738;2024-03-22T00:26:11;10.80;99.90
10986;DHT22;5546;48.714;8.738;2024-03-22T00:28:36;10.40;99.90
10986;DHT22;5546;48.714;8.738;2024-03-22T00:31:02;10.30;99.90
10986;DHT22;5546;48.714;8.738;2024-03-22T00:33:28;9.90;99.90
10986;DHT22;5546;48.714;8.738;2024-03-22T00:35:53;10.20;99.90
10986;DHT22;5546;48.714;8.738;2024-03-22T00:38:19;10.10;99.90
10986;DHT22;5546;48.714;8.738;2024-03-22T00:40:44;10.30;99.90
10986;DHT22;5546;48.714;8.738;2024-03-22T00:43:10;10.00;99.90
10986;DHT22;5546;48.714;8.738;2024-03-22T00:45:35;10.20;99.90
10986;DHT22;5546;48.714;8.738;2024-03-22T00:48:01;10.40;99.90
10986;DHT22;5546;48.714;8.738;2024-03-22T00:50:26;10.50;99.90
10986;DHT22;5546;48.714;8.738;2024-03-22T00:52:53;10.60;99.90
10986;DHT22;5546;48.714;8.738;2024-03-22T00:55:21;10.20;99.90
10986;DHT22;5546;48.714;8.738;2024-03-22T00:57:46;10.30;99.90
10986;DHT22;5546;48.714;8.738;2024-03-22T01:00:12;10.20;99.90
10986;DHT22;5546;48.714;8.738;2024-03-22T01:02:38;10.30;99.90
10986;DHT22;5546;48.714;8.738;2024-03-22T01:05:04;10.50;99.90
10986;DHT22;5546;48.714;8.738;2024-03-22T01:07:29;10.50;99.90
10986;DHT22;5546;48.714;8.738;2024-03-22T01:09:55;10.50;99.90
10986;DHT22;5546;48.714;8.738;2024-03-22T01:12:20;10.30;99.90
10986;DHT22;5546;48.714;8.738;2024-03-22T01:14:46;10.40;99.90
10986;DHT22;5546;48.714;8.738;2024-03-22T01:17:11;10.10;99.90
10986;DHT22;5546;48.714;8.738;2024-03-22T01:19:37;10.10;99.90
10986;DHT22;5546;48.714;8.738;2024-03-22T01:22:02;10.10;99.90
10986;DHT22;5546;48.714;8.738;2024-03-22T01:24:28;10.30;99.90
10986;DHT22;5546;48.714;8.738;2024-03-22T01:26:53;10.40;99.90
10986;DHT22;5546;48.714;8.738;2024-03-22T01:29:19;10.40;99.90
10986;DHT22;5546;48.714;8.738;2024-03-22T01:31:44;10.30;99.90
10986;DHT22;5546;48.714;8.738;2024-03-22T01:34:10;10.00;99.90
10986;DHT22;5546;48.714;8.738;2024-03-22T01:36:35;10.30;99.90
10986;DHT22;5546;48.714;8.738;2024-03-22T01:39:01;10.40;99.90
10986;DHT22;5546;48.714;8.738;2024-03-22T01:41:26;10.20;99.90
10986;DHT22;5546;48.714;8.738;2024-03-22T01:43:52;10.20;99.90
10986;DHT22;5546;48.714;8.738;2024-03-22T01:46:18;9.80;99.90
10986;DHT22;5546;48.714;8.738;2024-03-22T01:48:43;10.10;99.90
10986;DHT22;5546;48.714;8.738;2024-03-22T01:51:09;10.20;99.90
10986;DHT22;5546;48.714;8.738;2024-03-22T01:53:36;9.80;99.90
10986;DHT22;5546;48.714;8.738;2024-03-22T01:56:02;9.90;99.90
10986;DHT22;5546;48.714;8.738;2024-03-22T01:58:28;10.00;99.90
10986;DHT22;5546;48.714;8.738;2024-03-22T02:00:54;10.00;99.90
10986;DHT22;5546;48.714;8.738;2024-03-22T02:03:19;9.90;99.90
10986;DHT22;5546;48.714;8.738;2024-03-22T02:05:45;9.80;99.90
10986;DHT22;5546;48.714;8.738;2024-03-22T02:08:10;9.80;99.90
10986;DHT22;5546;48.714;8.738;2024-03-22T02:10:36;9.80;99.90
10986;DHT22;5546;48.714;8.738;2024-03-22T02:13:01;9.60;99.90
10986;DHT22;5546;48.714;8.738;2024-03-22T02:15:27;9.70;99.90
10986;DHT22;5546;48.714;8.738;2024-03-22T02:17:54;9.60;99.90
10986;DHT22;5546;48.714;8.738;2024-03-22T02:20:19;9.40;99.90
10986;DHT22;5546;48.714;8.738;2024-03-22T02:22:45;9.80;99.90
10986;DHT22;5546;48.714;8.738;2024-03-22T02:25:10;9.80;99.90
10986;DHT22;5546;48.714;8.738;2024-03-22T02:27:38;9.90;99.90
10986;DHT22;5546;48.714;8.738;2024-03-22T02:30:04;9.80;99.90
10986;DHT22;5546;48.714;8.738;2024-03-22T02:32:30;9.70;99.90
10986;DHT22;5546;48.714;8.738;2024-03-22T02:34:55;9.60;99.90
10986;DHT22;5546;48.714;8.738;2024-03-22T02:37:21;9.50;99.90
10986;DHT22;5546;48.714;8.738;2024-03-22T02:39:46;9.50;99.90
10986;DHT22;5546;48.714;8.738;2024-03-22T02:42:12;9.60;99.90
10986;DHT22;5546;48.714;8.738;2024-03-22T02:44:37;9.60;99.90
10986;DHT22;5546;48.714;8.738;2024-03-22T02:47:11;9.60;99.90
10986;DHT22;5546;48.714;8.738;2024-03-22T02:49:38;9.80;99.90
10986;DHT22;5546;48.714;8.738;2024-03-22T02:52:04;9.70;99.90
10986;DHT22;5546;48.714;8.738;2024-03-22T02:54:30;9.80;99.90
10986;DHT22;5546;48.714;8.738;2024-03-22T02:56:55;9.70;99.90
10986;DHT22;5546;48.714;8.738;2024-03-22T02:59:21;9.90;99.90
10986;DHT22;5546;48.714;8.738;2024-03-22T03:01:46;10.20;99.90
10986;DHT22;5546;48.714;8.738;2024-03-22T03:04:12;10.30;99.90
10986;DHT22;5546;48.714;8.738;2024-03-22T03:06:38;10.20;99.90
10986;DHT22;5546;48.714;8.738;2024-03-22T03:09:03;9.90;99.90
10986;DHT22;5546;48.714;8.738;2024-03-22T03:11:32;9.70;99.90
10986;DHT22;5546;48.714;8.738;2024-03-22T03:13:58;9.80;99.90
10986;DHT22;5546;48.714;8.738;2024-03-22T03:16:23;10.20;99.90
10986;DHT22;5546;48.714;8.738;2024-03-22T03:18:49;10.20;99.90
10986;DHT22;5546;48.714;8.738;2024-03-22T03:21:14;10.00;99.90
10986;DHT22;5546;48.714;8.738;2024-03-22T03:23:40;9.90;99.90
10986;DHT22;5546;48.714;8.738;2024-03-22T03:26:05;10.20;99.90
10986;DHT22;5546;48.714;8.738;2024-03-22T03:28:31;10.20;99.90
10986;DHT22;5546;48.714;8.738;2024-03-22T03:30:56;10.10;99.90
10986;DHT22;5546;48.714;8.738;2024-03-22T03:33:22;9.90;99.90
10986;DHT22;5546;48.714;8.738;2024-03-22T03:35:47;10.10;99.90
10986;DHT22;5546;48.714;8.738;2024-03-22T03:38:13;10.50;99.90
10986;DHT22;5546;48.714;8.738;2024-03-22T03:43:05;10.60;99.90
10986;DHT22;5546;48.714;8.738;2024-03-22T03:45:30;10.50;99.90
10986;DHT22;5546;48.714;8.738;2024-03-22T03:47:56;10.40;99.90
10986;DHT22;5546;48.714;8.738;2024-03-22T03:50:21;10.60;99.90
10986;DHT22;5546;48.714;8.738;2024-03-22T03:52:47;10.30;99.90
10986;DHT22;5546;48.714;8.738;2024-03-22T03:57:39;10.30;99.90
10986;DHT22;5546;48.714;8.738;2024-03-22T04:00:05;10.50;99.90
10986;DHT22;5546;48.714;8.738;2024-03-22T04:04:56;10.70;99.90
10986;DHT22;5546;48.714;8.738;2024-03-22T04:07:22;10.70;99.90
10986;DHT22;5546;48.714;8.738;2024-03-22T04:09:47;10.50;99.90
10986;DHT22;5546;48.714;8.738;2024-03-22T04:14:39;10.20;99.90
10986;DHT22;5546;48.714;8.738;2024-03-22T04:17:04;10.20;99.90
10986;DHT22;5546;48.714;8.738;2024-03-22T04:21:56;10.60;99.90
10986;DHT22;5546;48.714;8.738;2024-03-22T04:24:21;10.60;99.90
10986;DHT22;5546;48.714;8.738;2024-03-22T04:26:47;10.50;99.90
10986;DHT22;5546;48.714;8.738;2024-03-22T04:29:12;10.50;99.90
10986;DHT22;5546;48.714;8.738;2024-03-22T04:31:38;9.60;99.90
10986;DHT22;5546;48.714;8.738;2024-03-22T04:34:03;9.80;99.90
10986;DHT22;5546;48.714;8.738;2024-03-22T04:36:30;9.60;99.90
10986;DHT22;5546;48.714;8.738;2024-03-22T04:38:56;9.70;99.90
10986;DHT22;5546;48.714;8.738;2024-03-22T04:41:22;9.70;99.90
10986;DHT22;5546;48.714;8.738;2024-03-22T04:43:49;10.20;99.90
10986;DHT22;5546;48.714;8.738;2024-03-22T04:46:14;10.40;99.90
10986;DHT22;5546;48.714;8.738;2024-03-22T04:48:40;10.30;99.90
10986;DHT22;5546;48.714;8.738;2024-03-22T04:51:05;10.40;99.90
10986;DHT22;5546;48.714;8.738;2024-03-22T04:53:31;10.40;99.90
10986;DHT22;5546;48.714;8.738;2024-03-22T04:55:56;10.60;99.90
10986;DHT22;5546;48.714;8.738;2024-03-22T04:58:22;10.70;99.90
10986;DHT22;5546;48.714;8.738;2024-03-22T05:00:48;11.10;99.90
10986;DHT22;5546;48.714;8.738;2024-03-22T05:03:15;11.00;99.80
10986;DHT22;5546;48.714;8.738;2024-03-22T05:05:41;11.00;99.90
10986;DHT22;5546;48.714;8.738;2024-03-22T05:08:07;11.00;99.90
10986;DHT22;5546;48.714;8.738;2024-03-22T05:10:33;10.60;99.90
10986;DHT22;5546;48.714;8.738;2024-03-22T05:13:00;10.70;99.90
10986;DHT22;5546;48.714;8.738;2024-03-22T05:15:25;10.80;99.90
10986;DHT22;5546;48.714;8.738;2024-03-22T05:17:52;10.80;99.90
10986;DHT22;5546;48.714;8.738;2024-03-22T05:20:17;10.70;99.90
10986;DHT22;5546;48.714;8.738;2024-03-22T05:22:43;10.50;99.90
10986;DHT22;5546;48.714;8.738;2024-03-22T05:25:09;10.20;99.90
10986;DHT22;5546;48.714;8.738;2024-03-22T05:27:35;10.20;99.90
10986;DHT22;5546;48.714;8.738;2024-03-22T05:30:01;9.70;99.90
10986;DHT22;5546;48.714;8.738;2024-03-22T05:34:53;10.10;99.90
10986;DHT22;5546;48.714;8.738;2024-03-22T05:37:18;9.80;99.90
10986;DHT22;5546;48.714;8.738;2024-03-22T05:39:44;9.70;99.90
10986;DHT22;5546;48.714;8.738;2024-03-22T05:42:09;10.00;99.90
10986;DHT22;5546;48.714;8.738;2024-03-22T05:44:35;10.00;99.90
10986;DHT22;5546;48.714;8.738;2024-03-22T05:47:01;9.90;99.90
10986;DHT22;5546;48.714;8.738;2024-03-22T05:49:26;10.10;99.90
10986;DHT22;5546;48.714;8.738;2024-03-22T05:51:52;10.00;99.90
10986;DHT22;5546;48.714;8.738;2024-03-22T05:54:17;10.00;99.90
10986;DHT22;5546;48.714;8.738;2024-03-22T05:56:43;10.10;99.90
10986;DHT22;5546;48.714;8.738;2024-03-22T06:01:35;10.20;99.90
10986;DHT22;5546;48.714;8.738;2024-03-22T06:04:01;10.10;99.90
10986;DHT22;5546;48.714;8.738;2024-03-22T06:06:27;10.20;99.90
10986;DHT22;5546;48.714;8.738;2024-03-22T06:08:52;10.10;99.90
10986;DHT22;5546;48.714;8.738;2024-03-22T06:11:20;10.20;99.90
10986;DHT22;5546;48.714;8.738;2024-03-22T06:13:47;10.00;99.90
10986;DHT22;5546;48.714;8.738;2024-03-22T06:16:12;10.20;99.90
10986;DHT22;5546;48.714;8.738;2024-03-22T06:18:39;10.60;99.90
10986;DHT22;5546;48.714;8.738;2024-03-22T06:21:04;11.20;99.60
10986;DHT22;5546;48.714;8.738;2024-03-22T06:23:30;11.80;99.20
10986;DHT22;5546;48.714;8.738;2024-03-22T06:25:56;12.20;98.10
10986;DHT22;5546;48.714;8.738;2024-03-22T06:28:22;12.90;96.90
10986;DHT22;5546;48.714;8.738;2024-03-22T06:30:49;13.20;95.60
10986;DHT22;5546;48.714;8.738;2024-03-22T06:35:43;14.10;94.60
10986;DHT22;5546;48.714;8.738;2024-03-22T06:38:09;14.60;93.30
10986;DHT22;5546;48.714;8.738;2024-03-22T06:40:37;14.90;92.90
10986;DHT22;5546;48.714;8.738;2024-03-22T06:43:03;14.80;93.00
10986;DHT22;5546;48.714;8.738;2024-03-22T06:45:28;15.00;92.30
10986;DHT22;5546;48.714;8.738;2024-03-22T06:50:21;15.10;92.10
10986;DHT22;5546;48.714;8.738;2024-03-22T06:52:53;15.30;91.60
10986;DHT22;5546;48.714;8.738;2024-03-22T06:55:19;15.40;91.80
10986;DHT22;5546;48.714;8.738;2024-03-22T06:57:49;16.10;91.20
10986;DHT22;5546;48.714;8.738;2024-03-22T07:00:15;16.90;89.20
10986;DHT22;5546;48.714;8.738;2024-03-22T07:02:41;17.50;86.70
10986;DHT22;5546;48.714;8.738;2024-03-22T07:05:08;18.10;85.70
10986;DHT22;5546;48.714;8.738;2024-03-22T07:07:35;18.40;83.60
10986;DHT22;5546;48.714;8.738;2024-03-22T07:10:00;17.20;85.30
10986;DHT22;5546;48.714;8.738;2024-03-22T07:12:26;16.50;88.40
10986;DHT22;5546;48.714;8.738;2024-03-22T07:14:52;17.10;86.90
10986;DHT22;5546;48.714;8.738;2024-03-22T07:17:17;16.10;88.90
10986;DHT22;5546;48.714;8.738;2024-03-22T07:24:35;14.60;92.40
10986;DHT22;5546;48.714;8.738;2024-03-22T07:27:00;14.40;92.90
10986;DHT22;5546;48.714;8.738;2024-03-22T07:29:26;15.50;92.20
10986;DHT22;5546;48.714;8.738;2024-03-22T07:31:51;17.30;90.00
10986;DHT22;5546;48.714;8.738;2024-03-22T07:34:17;19.30;84.20
10986;DHT22;5546;48.714;8.738;2024-03-22T07:36:42;20.80;78.80
10986;DHT22;5546;48.714;8.738;2024-03-22T07:39:08;20.80;78.60
10986;DHT22;5546;48.714;8.738;2024-03-22T07:41:34;22.40;72.40
10986;DHT22;5546;48.714;8.738;2024-03-22T07:44:00;22.40;72.60
10986;DHT22;5546;48.714;8.738;2024-03-22T07:46:26;23.50;70.30
10986;DHT22;5546;48.714;8.738;2024-03-22T07:48:52;24.70;66.60
10986;DHT22;5546;48.714;8.738;2024-03-22T07:51:17;24.80;63.30
10986;DHT22;5546;48.714;8.738;2024-03-22T07:53:43;24.50;64.20
10986;DHT22;5546;48.714;8.738;2024-03-22T07:56:08;24.60;64.40
10986;DHT22;5546;48.714;8.738;2024-03-22T07:58:34;25.60;60.90
10986;DHT22;5546;48.714;8.738;2024-03-22T08:00:59;25.90;59.00
10986;DHT22;5546;48.714;8.738;2024-03-22T08:03:25;26.90;58.60
10986;DHT22;5546;48.714;8.738;2024-03-22T08:05:50;27.30;56.60
10986;DHT22;5546;48.714;8.738;2024-03-22T08:08:16;27.60;56.10
10986;DHT22;5546;48.714;8.738;2024-03-22T08:10:43;26.10;57.30
10986;DHT22;5546;48.714;8.738;2024-03-22T08:13:08;26.70;56.40
10986;DHT22;5546;48.714;8.738;2024-03-22T08:15:35;27.70;55.50
10986;DHT22;5546;48.714;8.738;2024-03-22T08:18:00;29.10;53.80
10986;DHT22;5546;48.714;8.738;2024-03-22T08:20:26;28.40;53.10
10986;DHT22;5546;48.714;8.738;2024-03-22T08:22:51;28.00;54.10
10986;DHT22;5546;48.714;8.738;2024-03-22T08:25:17;27.60;54.50
10986;DHT22;5546;48.714;8.738;2024-03-22T08:27:44;26.00;55.90
10986;DHT22;5546;48.714;8.738;2024-03-22T08:30:10;25.60;57.30
10986;DHT22;5546;48.714;8.738;2024-03-22T08:32:36;25.30;57.40
10986;DHT22;5546;48.714;8.738;2024-03-22T08:35:03;23.30;61.60
10986;DHT22;5546;48.714;8.738;2024-03-22T08:37:30;22.00;65.30
10986;DHT22;5546;48.714;8.738;2024-03-22T08:39:55;21.30;68.60
10986;DHT22;5546;48.714;8.738;2024-03-22T08:42:21;21.90;68.00
10986;DHT22;5546;48.714;8.738;2024-03-22T08:44:46;22.70;66.80
10986;DHT22;5546;48.714;8.738;2024-03-22T08:47:12;22.90;66.30
10986;DHT22;5546;48.714;8.738;2024-03-22T08:49:38;23.90;64.40
10986;DHT22;5546;48.714;8.738;2024-03-22T08:52:04;24.80;60.60
10986;DHT22;5546;48.714;8.738;2024-03-22T08:54:30;24.00;62.80
10986;DHT22;5546;48.714;8.738;2024-03-22T08:56:55;24.20;62.90
10986;DHT22;5546;48.714;8.738;2024-03-22T08:59:21;24.80;61.00
10986;DHT22;5546;48.714;8.738;2024-03-22T09:01:48;24.50;61.40
10986;DHT22;5546;48.714;8.738;2024-03-22T09:04:14;23.20;62.80
10986;DHT22;5546;48.714;8.738;2024-03-22T09:06:40;21.80;65.80
10986;DHT22;5546;48.714;8.738;2024-03-22T09:09:06;20.50;70.80
10986;DHT22;5546;48.714;8.738;2024-03-22T09:11:33;19.80;72.70
10986;DHT22;5546;48.714;8.738;2024-03-22T09:13:58;19.50;73.70
10986;DHT22;5546;48.714;8.738;2024-03-22T09:16:24;18.70;76.10
10986;DHT22;5546;48.714;8.738;2024-03-22T09:18:49;18.80;77.50
10986;DHT22;5546;48.714;8.738;2024-03-22T09:21:15;18.80;78.40
10986;DHT22;5546;48.714;8.738;2024-03-22T09:23:40;19.20;77.30
10986;DHT22;5546;48.714;8.738;2024-03-22T09:26:06;19.50;77.10
10986;DHT22;5546;48.714;8.738;2024-03-22T09:28:32;19.70;75.60
10986;DHT22;5546;48.714;8.738;2024-03-22T09:30:57;20.30;74.70
10986;DHT22;5546;48.714;8.738;2024-03-22T09:35:49;21.60;71.00
10986;DHT22;5546;48.714;8.738;2024-03-22T09:38:14;21.50;70.00
10986;DHT22;5546;48.714;8.738;2024-03-22T09:40:41;21.60;70.60
10986;DHT22;5546;48.714;8.738;2024-03-22T09:43:07;22.00;69.10
10986;DHT22;5546;48.714;8.738;2024-03-22T09:48:00;22.10;67.80
10986;DHT22;5546;48.714;8.738;2024-03-22T09:50:26;22.80;66.70
10986;DHT22;5546;48.714;8.738;2024-03-22T09:52:53;22.40;66.00
10986;DHT22;5546;48.714;8.738;2024-03-22T09:55:23;23.00;65.20
10986;DHT22;5546;48.714;8.738;2024-03-22T09:57:49;23.80;63.90
10986;DHT22;5546;48.714;8.738;2024-03-22T10:00:19;24.40;61.40
10986;DHT22;5546;48.714;8.738;2024-03-22T10:02:50;25.20;59.10
10986;DHT22;5546;48.714;8.738;2024-03-22T10:05:16;25.70;59.20
10986;DHT22;5546;48.714;8.738;2024-03-22T10:07:43;27.20;56.90
10986;DHT22;5546;48.714;8.738;2024-03-22T10:10:09;27.10;57.30
10986;DHT22;5546;48.714;8.738;2024-03-22T10:12:35;28.00;55.80
10986;DHT22;5546;48.714;8.738;2024-03-22T10:15:01;26.40;56.30
10986;DHT22;5546;48.714;8.738;2024-03-22T10:17:27;26.40;56.80
10986;DHT22;5546;48.714;8.738;2024-03-22T10:19:53;26.10;56.70
10986;DHT22;5546;48.714;8.738;2024-03-22T10:29:37;25.70;56.30
10986;DHT22;5546;48.714;8.738;2024-03-22T10:32:03;26.20;55.70
10986;DHT22;5546;48.714;8.738;2024-03-22T10:34:29;26.30;55.70
10986;DHT22;5546;48.714;8.738;2024-03-22T10:36:59;26.40;56.20
10986;DHT22;5546;48.714;8.738;2024-03-22T10:39:26;27.10;54.70
10986;DHT22;5546;48.714;8.738;2024-03-22T10:41:52;27.10;54.00
10986;DHT22;5546;48.714;8.738;2024-03-22T10:44:18;27.10;54.30
10986;DHT22;5546;48.714;8.738;2024-03-22T10:46:46;26.90;54.30
10986;DHT22;5546;48.714;8.738;2024-03-22T10:49:21;27.00;53.60
10986;DHT22;5546;48.714;8.738;2024-03-22T10:51:58;26.40;53.40
10986;DHT22;5546;48.714;8.738;2024-03-22T10:54:28;26.50;54.00
10986;DHT22;5546;48.714;8.738;2024-03-22T10:56:56;28.30;52.30
10986;DHT22;5546;48.714;8.738;2024-03-22T10:59:23;30.10;50.10
10986;DHT22;5546;48.714;8.738;2024-03-22T11:01:51;31.10;47.80
10986;DHT22;5546;48.714;8.738;2024-03-22T11:04:17;32.60;45.20
10986;DHT22;5546;48.714;8.738;2024-03-22T11:06:48;33.20;44.10
10986;DHT22;5546;48.714;8.738;2024-03-22T11:09:23;34.90;42.50
10986;DHT22;5546;48.714;8.738;2024-03-22T11:11:51;35.10;40.30
10986;DHT22;5546;48.714;8.738;2024-03-22T11:14:17;35.80;39.30
10986;DHT22;5546;48.714;8.738;2024-03-22T11:16:43;33.60;37.40
10986;DHT22;5546;48.714;8.738;2024-03-22T11:19:10;35.30;38.40
10986;DHT22;5546;48.714;8.738;2024-03-22T11:21:35;35.60;36.90
10986;DHT22;5546;48.714;8.738;2024-03-22T11:24:01;35.00;36.90
10986;DHT22;5546;48.714;8.738;2024-03-22T11:26:27;36.10;36.20
10986;DHT22;5546;48.714;8.738;2024-03-22T11:28:52;36.30;35.50
10986;DHT22;5546;48.714;8.738;2024-03-22T11:31:18;36.30;35.10
10986;DHT22;5546;48.714;8.738;2024-03-22T11:33:47;35.50;34.70
10986;DHT22;5546;48.714;8.738;2024-03-22T11:36:13;35.50;35.20
10986;DHT22;5546;48.714;8.738;2024-03-22T11:38:39;33.70;35.90
10986;DHT22;5546;48.714;8.738;2024-03-22T11:41:05;33.60;36.50
10986;DHT22;5546;48.714;8.738;2024-03-22T11:43:31;33.90;36.80
10986;DHT22;5546;48.714;8.738;2024-03-22T11:45:57;33.30;35.90
10986;DHT22;5546;48.714;8.738;2024-03-22T11:50:50;31.80;36.90
10986;DHT22;5546;48.714;8.738;2024-03-22T11:53:18;31.90;37.30
10986;DHT22;5546;48.714;8.738;2024-03-22T11:55:44;32.70;37.20
10986;DHT22;5546;48.714;8.738;2024-03-22T11:58:12;32.90;35.20
10986;DHT22;5546;48.714;8.738;2024-03-22T12:00:38;32.60;35.40
10986;DHT22;5546;48.714;8.738;2024-03-22T12:03:05;32.50;35.90
10986;DHT22;5546;48.714;8.738;2024-03-22T12:05:33;31.00;37.10
10986;DHT22;5546;48.714;8.738;2024-03-22T12:07:59;30.20;37.60
10986;DHT22;5546;48.714;8.738;2024-03-22T12:10:24;30.20;38.30
10986;DHT22;5546;48.714;8.738;2024-03-22T12:12:50;30.10;38.40
10986;DHT22;5546;48.714;8.738;2024-03-22T12:15:15;30.30;38.40
10986;DHT22;5546;48.714;8.738;2024-03-22T12:17:41;30.10;37.80
10986;DHT22;5546;48.714;8.738;2024-03-22T12:20:09;29.70;38.10
10986;DHT22;5546;48.714;8.738;2024-03-22T12:22:35;28.40;39.10
10986;DHT22;5546;48.714;8.738;2024-03-22T12:27:26;29.60;37.60
10986;DHT22;5546;48.714;8.738;2024-03-22T12:29:52;29.60;37.70
10986;DHT22;5546;48.714;8.738;2024-03-22T12:32:17;30.40;36.10
10986;DHT22;5546;48.714;8.738;2024-03-22T12:34:43;30.30;35.70
10986;DHT22;5546;48.714;8.738;2024-03-22T12:37:09;30.40;36.30
10986;DHT22;5546;48.714;8.738;2024-03-22T12:39:35;31.30;31.50
10986;DHT22;5546;48.714;8.738;2024-03-22T12:42:00;31.00;29.90
10986;DHT22;5546;48.714;8.738;2024-03-22T12:44:26;30.20;29.80
10986;DHT22;5546;48.714;8.738;2024-03-22T12:46:52;30.80;30.90
10986;DHT22;5546;48.714;8.738;2024-03-22T12:49:19;31.30;30.00
10986;DHT22;5546;48.714;8.738;2024-03-22T12:51:45;30.70;31.20
10986;DHT22;5546;48.714;8.738;2024-03-22T12:54:10;30.40;30.70
10986;DHT22;5546;48.714;8.738;2024-03-22T12:56:36;29.90;30.20
10986;DHT22;5546;48.714;8.738;2024-03-22T12:59:04;30.10;31.20
10986;DHT22;5546;48.714;8.738;2024-03-22T13:01:30;29.80;31.20
10986;DHT22;5546;48.714;8.738;2024-03-22T13:03:56;29.70;32.60
10986;DHT22;5546;48.714;8.738;2024-03-22T13:06:22;29.30;32.60
10986;DHT22;5546;48.714;8.738;2024-03-22T13:08:47;28.80;34.20
10986;DHT22;5546;48.714;8.738;2024-03-22T13:11:13;28.30;32.50
10986;DHT22;5546;48.714;8.738;2024-03-22T13:13:39;28.10;33.50
10986;DHT22;5546;48.714;8.738;2024-03-22T13:16:05;28.70;32.30
10986;DHT22;5546;48.714;8.738;2024-03-22T13:23:24;29.10;31.60
10986;DHT22;5546;48.714;8.738;2024-03-22T13:25:50;29.10;30.90
10986;DHT22;5546;48.714;8.738;2024-03-22T13:28:15;28.90;31.40
10986;DHT22;5546;48.714;8.738;2024-03-22T13:30:45;28.90;31.90
10986;DHT22;5546;48.714;8.738;2024-03-22T13:33:11;28.40;30.00
10986;DHT22;5546;48.714;8.738;2024-03-22T13:35:36;28.00;30.70
10986;DHT22;5546;48.714;8.738;2024-03-22T13:38:02;27.90;30.90
10986;DHT22;5546;48.714;8.738;2024-03-22T13:40:28;27.90;31.20
10986;DHT22;5546;48.714;8.738;2024-03-22T13:42:54;27.70;31.20
10986;DHT22;5546;48.714;8.738;2024-03-22T13:45:19;27.20;31.50
10986;DHT22;5546;48.714;8.738;2024-03-22T13:47:45;27.00;32.40
10986;DHT22;5546;48.714;8.738;2024-03-22T13:50:11;26.30;33.10
10986;DHT22;5546;48.714;8.738;2024-03-22T13:52:37;26.40;33.10
10986;DHT22;5546;48.714;8.738;2024-03-22T13:55:03;26.40;33.40
10986;DHT22;5546;48.714;8.738;2024-03-22T13:57:30;25.90;33.80
10986;DHT22;5546;48.714;8.738;2024-03-22T13:59:55;24.50;35.00
10986;DHT22;5546;48.714;8.738;2024-03-22T14:02:21;24.50;36.10
10986;DHT22;5546;48.714;8.738;2024-03-22T14:04:47;24.60;35.90
10986;DHT22;5546;48.714;8.738;2024-03-22T14:07:12;24.60;36.00
10986;DHT22;5546;48.714;8.738;2024-03-22T14:09:38;24.50;38.80
10986;DHT22;5546;48.714;8.738;2024-03-22T14:12:05;24.60;36.20
10986;DHT22;5546;48.714;8.738;2024-03-22T14:14:31;24.60;37.00
10986;DHT22;5546;48.714;8.738;2024-03-22T14:16:57;24.50;36.50
10986;DHT22;5546;48.714;8.738;2024-03-22T14:19:23;24.60;36.80
10986;DHT22;5546;48.714;8.738;2024-03-22T14:21:49;25.20;36.80
10986;DHT22;5546;48.714;8.738;2024-03-22T14:24:15;25.10;37.50
10986;DHT22;5546;48.714;8.738;2024-03-22T14:26:41;25.00;38.50
10986;DHT22;5546;48.714;8.738;2024-03-22T14:29:10;25.20;37.60
10986;DHT22;5546;48.714;8.738;2024-03-22T14:31:37;24.40;36.10
10986;DHT22;5546;48.714;8.738;2024-03-22T14:34:03;24.10;37.50
10986;DHT22;5546;48.714;8.738;2024-03-22T14:36:28;24.40;38.80
10986;DHT22;5546;48.714;8.738;2024-03-22T14:38:54;24.60;37.60
10986;DHT22;5546;48.714;8.738;2024-03-22T14:41:19;24.40;37.70
10986;DHT22;5546;48.714;8.738;2024-03-22T14:43:45;24.50;38.80
10986;DHT22;5546;48.714;8.738;2024-03-22T14:46:10;24.60;37.30
10986;DHT22;5546;48.714;8.738;2024-03-22T14:48:37;24.50;36.70
10986;DHT22;5546;48.714;8.738;2024-03-22T14:51:02;24.10;36.60
10986;DHT22;5546;48.714;8.738;2024-03-22T14:53:28;24.00;37.40
10986;DHT22;5546;48.714;8.738;2024-03-22T14:55:58;23.90;35.70
10986;DHT22;5546;48.714;8.738;2024-03-22T14:58:27;23.90;35.70
10986;DHT22;5546;48.714;8.738;2024-03-22T15:00:54;23.70;36.10
10986;DHT22;5546;48.714;8.738;2024-03-22T15:03:20;23.30;37.00
10986;DHT22;5546;48.714;8.738;2024-03-22T15:05:46;23.40;37.30
10986;DHT22;5546;48.714;8.738;2024-03-22T15:08:11;23.60;37.50
10986;DHT22;5546;48.714;8.738;2024-03-22T15:10:38;23.70;38.10
10986;DHT22;5546;48.714;8.738;2024-03-22T15:13:03;23.60;39.70
10986;DHT22;5546;48.714;8.738;2024-03-22T15:15:29;23.80;37.60
10986;DHT22;5546;48.714;8.738;2024-03-22T15:17:55;23.50;39.70
10986;DHT22;5546;48.714;8.738;2024-03-22T15:20:20;23.40;38.00
10986;DHT22;5546;48.714;8.738;2024-03-22T15:22:46;23.20;43.40
10986;DHT22;5546;48.714;8.738;2024-03-22T15:25:11;23.50;39.70
10986;DHT22;5546;48.714;8.738;2024-03-22T15:27:37;23.50;38.90
10986;DHT22;5546;48.714;8.738;2024-03-22T15:30:03;23.20;41.40
10986;DHT22;5546;48.714;8.738;2024-03-22T15:34:57;22.90;43.50
10986;DHT22;5546;48.714;8.738;2024-03-22T15:37:22;23.00;41.90
10986;DHT22;5546;48.714;8.738;2024-03-22T15:39:49;22.60;49.50
10986;DHT22;5546;48.714;8.738;2024-03-22T15:42:15;22.80;48.30
10986;DHT22;5546;48.714;8.738;2024-03-22T15:44:40;22.90;47.30
10986;DHT22;5546;48.714;8.738;2024-03-22T15:47:06;22.50;48.20
10986;DHT22;5546;48.714;8.738;2024-03-22T15:49:31;22.80;48.50
10986;DHT22;5546;48.714;8.738;2024-03-22T15:51:57;22.70;47.10
10986;DHT22;5546;48.714;8.738;2024-03-22T15:56:48;21.90;48.60
10986;DHT22;5546;48.714;8.738;2024-03-22T15:59:14;21.60;51.40
10986;DHT22;5546;48.714;8.738;2024-03-22T16:01:39;21.80;52.50
10986;DHT22;5546;48.714;8.738;2024-03-22T16:04:05;21.80;51.00
10986;DHT22;5546;48.714;8.738;2024-03-22T16:06:31;21.90;51.10
10986;DHT22;5546;48.714;8.738;2024-03-22T16:11:23;22.10;49.40
10986;DHT22;5546;48.714;8.738;2024-03-22T16:13:48;21.90;52.10
10986;DHT22;5546;48.714;8.738;2024-03-22T16:16:14;22.00;53.40
10986;DHT22;5546;48.714;8.738;2024-03-22T16:18:39;21.80;52.70
10986;DHT22;5546;48.714;8.738;2024-03-22T16:21:05;21.70;51.70
10986;DHT22;5546;48.714;8.738;2024-03-22T16:23:30;21.70;53.70
10986;DHT22;5546;48.714;8.738;2024-03-22T16:25:56;21.30;55.40
10986;DHT22;5546;48.714;8.738;2024-03-22T16:28:21;21.00;56.90
10986;DHT22;5546;48.714;8.738;2024-03-22T16:33:13;20.60;57.00
10986;DHT22;5546;48.714;8.738;2024-03-22T16:35:38;20.50;56.70
10986;DHT22;5546;48.714;8.738;2024-03-22T16:38:04;20.10;57.40